sensor_id;sensor_type;location;lat;lon;timestamp;temperature;humidity
41924;DHT22;27613;48.116;11.656;2022-10-16T00:01:24;12.20;99.90
41924;DHT22;27613;48.116;11.656;2022-10-16T00:03:51;12.20;99.90
41924;DHT22;27613;48.116;11.656;2022-10-16T00:06:18;12.20;99.90
41924;DHT22;27613;48.116;11.656;2022-10-16T00:08:44;12.20;99.90
41924;DHT22;27613;48.116;11.656;2022-10-16T00:11:17;12.10;99.90
41924;DHT22;27613;48.116;11.656;2022-10-16T00:13:45;12.10;99.90
41924;DHT22;27613;48.116;11.656;2022-10-16T00:16:11;12.20;99.90
41924;DHT22;27613;48.116;11.656;2022-10-16T00:18:37;12.10;99.90
41924;DHT22;27613;48.116;11.656;2022-10-16T00:21:06;12.10;99.90
41924;DHT22;27613;48.116;11.656;2022-10-16T00:23:33;12.10;99.90
41924;DHT22;27613;48.116;11.656;2022-10-16T00:26:03;12.00;99.90
41924;DHT22;27613;48.116;11.656;2022-10-16T00:28:30;12.00;99.90
41924;DHT22;27613;48.116;11.656;2022-10-16T00:30:55;11.90;99.90
41924;DHT22;27613;48.116;11.656;2022-10-16T00:33:22;11.80;99.90
41924;DHT22;27613;48.116;11.656;2022-10-16T00:35:47;11.80;99.90
41924;DHT22;27613;48.116;11.656;2022-10-16T00:38:13;11.80;99.90
41924;DHT22;27613;48.116;11.656;2022-10-16T00:40:39;11.80;99.90
41924;DHT22;27613;48.116;11.656;2022-10-16T00:43:42;11.70;99.90
41924;DHT22;27613;48.116;11.656;2022-10-16T00:46:21;11.70;99.90
41924;DHT22;27613;48.116;11.656;2022-10-16T00:51:33;11.70;99.90
41924;DHT22;27613;48.116;11.656;2022-10-16T00:53:59;11.60;99.90
41924;DHT22;27613;48.116;11.656;2022-10-16T00:56:25;11.60;99.90
41924;DHT22;27613;48.116;11.656;2022-10-16T00:58:51;11.70;99.90
41924;DHT22;27613;48.116;11.656;2022-10-16T01:01:17;11.90;99.90
41924;DHT22;27613;48.116;11.656;2022-10-16T01:03:42;11.90;99.90
41924;DHT22;27613;48.116;11.656;2022-10-16T01:06:19;11.90;99.90
41924;DHT22;27613;48.116;11.656;2022-10-16T01:09:06;11.90;99.90
41924;DHT22;27613;48.116;11.656;2022-10-16T01:12:00;11.90;99.90
41924;DHT22;27613;48.116;11.656;2022-10-16T01:14:47;11.80;99.90
41924;DHT22;27613;48.116;11.656;2022-10-16T01:17:30;11.80;99.90
41924;DHT22;27613;48.116;11.656;2022-10-16T01:23:15;11.90;99.90
41924;DHT22;27613;48.116;11.656;2022-10-16T01:25:58;11.90;99.90
41924;DHT22;27613;48.116;11.656;2022-10-16T01:31:20;11.80;99.90
41924;DHT22;27613;48.116;11.656;2022-10-16T01:33:54;11.80;99.90
41924;DHT22;27613;48.116;11.656;2022-10-16T01:36:28;11.90;99.90
41924;DHT22;27613;48.116;11.656;2022-10-16T01:39:00;12.00;99.90
41924;DHT22;27613;48.116;11.656;2022-10-16T01:41:46;12.00;99.90
41924;DHT22;27613;48.116;11.656;2022-10-16T01:44:23;11.90;99.90
41924;DHT22;27613;48.116;11.656;2022-10-16T01:46:51;11.90;99.90
41924;DHT22;27613;48.116;11.656;2022-10-16T01:49:17;11.90;99.90
41924;DHT22;27613;48.116;11.656;2022-10-16T01:51:47;11.90;99.90
41924;DHT22;27613;48.116;11.656;2022-10-16T01:54:16;11.80;99.90
41924;DHT22;27613;48.116;11.656;2022-10-16T01:56:43;11.90;99.90
41924;DHT22;27613;48.116;11.656;2022-10-16T01:59:12;11.90;99.90
41924;DHT22;27613;48.116;11.656;2022-10-16T02:01:42;11.70;99.90
41924;DHT22;27613;48.116;11.656;2022-10-16T02:04:20;11.60;99.90
41924;DHT22;27613;48.116;11.656;2022-10-16T02:06:46;11.50;99.90
41924;DHT22;27613;48.116;11.656;2022-10-16T02:09:12;11.40;99.90
41924;DHT22;27613;48.116;11.656;2022-10-16T02:11:40;11.40;99.90
41924;DHT22;27613;48.116;11.656;2022-10-16T02:14:07;11.40;99.90
41924;DHT22;27613;48.116;11.656;2022-10-16T02:16:38;11.40;99.90
41924;DHT22;27613;48.116;11.656;2022-10-16T02:19:05;11.40;99.90
41924;DHT22;27613;48.116;11.656;2022-10-16T02:27:07;11.50;99.90
41924;DHT22;27613;48.116;11.656;2022-10-16T02:29:38;11.60;99.90
41924;DHT22;27613;48.116;11.656;2022-10-16T02:32:06;11.70;99.90
41924;DHT22;27613;48.116;11.656;2022-10-16T02:34:33;11.70;99.90
41924;DHT22;27613;48.116;11.656;2022-10-16T02:37:01;11.70;99.90
41924;DHT22;27613;48.116;11.656;2022-10-16T02:39:28;11.70;99.90
41924;DHT22;27613;48.116;11.656;2022-10-16T02:41:54;11.70;99.90
41924;DHT22;27613;48.116;11.656;2022-10-16T02:44:20;11.70;99.90
41924;DHT22;27613;48.116;11.656;2022-10-16T02:46:46;11.60;99.90
41924;DHT22;27613;48.116;11.656;2022-10-16T02:49:11;11.60;99.90
41924;DHT22;27613;48.116;11.656;2022-10-16T02:51:37;11.50;99.90
41924;DHT22;27613;48.116;11.656;2022-10-16T02:54:03;11.50;99.90
41924;DHT22;27613;48.116;11.656;2022-10-16T02:56:29;11.40;99.90
41924;DHT22;27613;48.116;11.656;2022-10-16T02:58:55;11.40;99.90
41924;DHT22;27613;48.116;11.656;2022-10-16T03:01:21;11.30;99.90
41924;DHT22;27613;48.116;11.656;2022-10-16T03:03:46;11.30;99.90
41924;DHT22;27613;48.116;11.656;2022-10-16T03:06:12;11.30;99.90
41924;DHT22;27613;48.116;11.656;2022-10-16T03:08:38;11.40;99.90
41924;DHT22;27613;48.116;11.656;2022-10-16T03:11:04;11.50;99.90
41924;DHT22;27613;48.116;11.656;2022-10-16T03:13:29;11.50;99.90
41924;DHT22;27613;48.116;11.656;2022-10-16T03:15:55;11.40;99.90
41924;DHT22;27613;48.116;11.656;2022-10-16T03:18:20;11.30;99.90
41924;DHT22;27613;48.116;11.656;2022-10-16T03:20:46;11.20;99.90
41924;DHT22;27613;48.116;11.656;2022-10-16T03:23:12;11.20;99.90
41924;DHT22;27613;48.116;11.656;2022-10-16T03:25:37;11.20;99.90
41924;DHT22;27613;48.116;11.656;2022-10-16T03:28:03;11.20;99.90
41924;DHT22;27613;48.116;11.656;2022-10-16T03:30:29;11.10;99.90
41924;DHT22;27613;48.116;11.656;2022-10-16T03:32:55;11.30;99.90
41924;DHT22;27613;48.116;11.656;2022-10-16T03:35:21;11.20;99.90
41924;DHT22;27613;48.116;11.656;2022-10-16T03:37:47;11.10;99.90
41924;DHT22;27613;48.116;11.656;2022-10-16T03:40:12;11.10;99.90
41924;DHT22;27613;48.116;11.656;2022-10-16T03:42:38;11.10;99.90
41924;DHT22;27613;48.116;11.656;2022-10-16T03:45:05;11.10;99.90
41924;DHT22;27613;48.116;11.656;2022-10-16T03:47:30;11.10;99.90
41924;DHT22;27613;48.116;11.656;2022-10-16T03:49:58;11.10;99.90
41924;DHT22;27613;48.116;11.656;2022-10-16T03:52:24;11.30;99.90
41924;DHT22;27613;48.116;11.656;2022-10-16T03:54:49;11.40;99.90
41924;DHT22;27613;48.116;11.656;2022-10-16T03:57:15;11.60;99.90
41924;DHT22;27613;48.116;11.656;2022-10-16T03:59:40;11.70;99.90
41924;DHT22;27613;48.116;11.656;2022-10-16T04:02:06;11.70;99.90
41924;DHT22;27613;48.116;11.656;2022-10-16T04:04:32;11.70;99.90
41924;DHT22;27613;48.116;11.656;2022-10-16T04:06:57;11.70;99.90
41924;DHT22;27613;48.116;11.656;2022-10-16T04:09:23;11.60;99.90
41924;DHT22;27613;48.116;11.656;2022-10-16T04:11:48;11.60;99.90
41924;DHT22;27613;48.116;11.656;2022-10-16T04:14:14;11.60;99.90
41924;DHT22;27613;48.116;11.656;2022-10-16T04:16:39;11.60;99.90
41924;DHT22;27613;48.116;11.656;2022-10-16T04:19:05;11.60;99.90
41924;DHT22;27613;48.116;11.656;2022-10-16T04:21:30;11.60;99.90
41924;DHT22;27613;48.116;11.656;2022-10-16T04:23:56;11.60;99.90
41924;DHT22;27613;48.116;11.656;2022-10-16T04:26:21;11.60;99.90
41924;DHT22;27613;48.116;11.656;2022-10-16T04:28:47;11.60;99.90
41924;DHT22;27613;48.116;11.656;2022-10-16T04:31:13;11.60;99.90
41924;DHT22;27613;48.116;11.656;2022-10-16T04:33:38;11.60;99.90
41924;DHT22;27613;48.116;11.656;2022-10-16T04:36:04;11.60;99.90
41924;DHT22;27613;48.116;11.656;2022-10-16T04:38:30;11.60;99.90
41924;DHT22;27613;48.116;11.656;2022-10-16T04:40:56;11.60;99.90
41924;DHT22;27613;48.116;11.656;2022-10-16T04:43:23;11.70;99.90
41924;DHT22;27613;48.116;11.656;2022-10-16T04:45:48;11.70;99.90
41924;DHT22;27613;48.116;11.656;2022-10-16T04:48:16;11.70;99.90
41924;DHT22;27613;48.116;11.656;2022-10-16T04:50:41;11.60;99.90
41924;DHT22;27613;48.116;11.656;2022-10-16T04:53:07;11.60;99.90
41924;DHT22;27613;48.116;11.656;2022-10-16T04:55:33;11.60;99.90
41924;DHT22;27613;48.116;11.656;2022-10-16T04:57:58;11.70;99.90
41924;DHT22;27613;48.116;11.656;2022-10-16T05:00:24;11.70;99.90
41924;DHT22;27613;48.116;11.656;2022-10-16T05:02:50;11.70;99.90
41924;DHT22;27613;48.116;11.656;2022-10-16T05:05:16;11.70;99.90
41924;DHT22;27613;48.116;11.656;2022-10-16T05:07:41;11.80;99.90
41924;DHT22;27613;48.116;11.656;2022-10-16T05:10:07;11.80;99.90
41924;DHT22;27613;48.116;11.656;2022-10-16T05:12:34;11.80;99.90
41924;DHT22;27613;48.116;11.656;2022-10-16T05:14:59;11.70;99.90
41924;DHT22;27613;48.116;11.656;2022-10-16T05:17:25;11.70;99.90
41924;DHT22;27613;48.116;11.656;2022-10-16T05:19:51;11.70;99.90
41924;DHT22;27613;48.116;11.656;2022-10-16T05:22:17;11.80;99.90
41924;DHT22;27613;48.116;11.656;2022-10-16T05:24:43;11.80;99.90
41924;DHT22;27613;48.116;11.656;2022-10-16T05:27:08;11.80;99.90
41924;DHT22;27613;48.116;11.656;2022-10-16T05:29:34;11.80;99.90
41924;DHT22;27613;48.116;11.656;2022-10-16T05:32:00;11.80;99.90
41924;DHT22;27613;48.116;11.656;2022-10-16T05:34:26;11.80;99.90
41924;DHT22;27613;48.116;11.656;2022-10-16T05:36:51;11.80;99.90
41924;DHT22;27613;48.116;11.656;2022-10-16T05:39:17;11.80;99.90
41924;DHT22;27613;48.116;11.656;2022-10-16T05:41:43;11.90;99.90
41924;DHT22;27613;48.116;11.656;2022-10-16T05:44:09;11.80;99.90
41924;DHT22;27613;48.116;11.656;2022-10-16T05:46:34;11.90;99.90
41924;DHT22;27613;48.116;11.656;2022-10-16T05:49:00;11.90;99.90
41924;DHT22;27613;48.116;11.656;2022-10-16T05:51:26;11.90;99.90
41924;DHT22;27613;48.116;11.656;2022-10-16T05:53:52;11.90;99.90
41924;DHT22;27613;48.116;11.656;2022-10-16T05:56:18;11.90;99.90
41924;DHT22;27613;48.116;11.656;2022-10-16T05:58:43;11.90;99.90
41924;DHT22;27613;48.116;11.656;2022-10-16T06:01:15;11.90;99.90
41924;DHT22;27613;48.116;11.656;2022-10-16T06:03:41;12.00;99.90
41924;DHT22;27613;48.116;11.656;2022-10-16T06:06:11;12.10;99.90
41924;DHT22;27613;48.116;11.656;2022-10-16T06:08:38;12.10;99.90
41924;DHT22;27613;48.116;11.656;2022-10-16T06:11:05;12.10;99.90
41924;DHT22;27613;48.116;11.656;2022-10-16T06:13:31;12.30;99.90
41924;DHT22;27613;48.116;11.656;2022-10-16T06:16:00;12.40;99.90
41924;DHT22;27613;48.116;11.656;2022-10-16T06:18:27;12.40;99.90
41924;DHT22;27613;48.116;11.656;2022-10-16T06:20:54;12.50;99.90
41924;DHT22;27613;48.116;11.656;2022-10-16T06:23:20;12.60;99.90
41924;DHT22;27613;48.116;11.656;2022-10-16T06:25:45;12.60;99.90
41924;DHT22;27613;48.116;11.656;2022-10-16T06:28:12;12.70;99.90
41924;DHT22;27613;48.116;11.656;2022-10-16T06:30:38;12.80;99.90
41924;DHT22;27613;48.116;11.656;2022-10-16T06:33:03;12.80;99.90
41924;DHT22;27613;48.116;11.656;2022-10-16T06:35:29;12.90;99.90
41924;DHT22;27613;48.116;11.656;2022-10-16T06:37:57;13.00;99.90
41924;DHT22;27613;48.116;11.656;2022-10-16T06:40:22;13.00;99.90
41924;DHT22;27613;48.116;11.656;2022-10-16T06:42:48;13.10;99.90
41924;DHT22;27613;48.116;11.656;2022-10-16T06:45:15;13.10;99.90
41924;DHT22;27613;48.116;11.656;2022-10-16T06:47:40;13.20;99.90
41924;DHT22;27613;48.116;11.656;2022-10-16T06:50:06;13.20;99.90
41924;DHT22;27613;48.116;11.656;2022-10-16T06:52:33;13.30;99.90
41924;DHT22;27613;48.116;11.656;2022-10-16T06:54:59;13.30;99.90
41924;DHT22;27613;48.116;11.656;2022-10-16T06:57:24;13.30;99.90
41924;DHT22;27613;48.116;11.656;2022-10-16T06:59:50;13.40;99.90
41924;DHT22;27613;48.116;11.656;2022-10-16T07:02:16;13.40;99.90
41924;DHT22;27613;48.116;11.656;2022-10-16T07:04:41;13.40;99.90
41924;DHT22;27613;48.116;11.656;2022-10-16T07:07:07;13.60;99.90
41924;DHT22;27613;48.116;11.656;2022-10-16T07:09:32;13.70;99.90
41924;DHT22;27613;48.116;11.656;2022-10-16T07:11:58;13.80;99.90
41924;DHT22;27613;48.116;11.656;2022-10-16T07:14:23;13.80;99.90
41924;DHT22;27613;48.116;11.656;2022-10-16T07:16:49;13.90;99.90
41924;DHT22;27613;48.116;11.656;2022-10-16T07:19:15;14.10;99.90
41924;DHT22;27613;48.116;11.656;2022-10-16T07:21:43;14.20;99.90
41924;DHT22;27613;48.116;11.656;2022-10-16T07:24:14;14.60;99.90
41924;DHT22;27613;48.116;11.656;2022-10-16T07:26:41;16.60;99.90
41924;DHT22;27613;48.116;11.656;2022-10-16T07:29:12;18.50;98.90
41924;DHT22;27613;48.116;11.656;2022-10-16T07:31:39;20.40;92.30
41924;DHT22;27613;48.116;11.656;2022-10-16T07:34:05;21.80;86.20
41924;DHT22;27613;48.116;11.656;2022-10-16T07:36:31;22.10;80.10
41924;DHT22;27613;48.116;11.656;2022-10-16T07:38:58;21.80;80.00
41924;DHT22;27613;48.116;11.656;2022-10-16T07:41:24;21.40;80.30
41924;DHT22;27613;48.116;11.656;2022-10-16T07:43:51;20.70;84.60
41924;DHT22;27613;48.116;11.656;2022-10-16T07:46:18;22.10;80.00
41924;DHT22;27613;48.116;11.656;2022-10-16T07:48:44;22.50;78.80
41924;DHT22;27613;48.116;11.656;2022-10-16T07:51:17;22.40;76.20
41924;DHT22;27613;48.116;11.656;2022-10-16T07:53:43;22.40;77.00
41924;DHT22;27613;48.116;11.656;2022-10-16T07:56:09;23.30;73.70
41924;DHT22;27613;48.116;11.656;2022-10-16T07:58:35;23.10;74.60
41924;DHT22;27613;48.116;11.656;2022-10-16T08:01:07;24.10;72.80
41924;DHT22;27613;48.116;11.656;2022-10-16T08:03:33;23.40;72.70
41924;DHT22;27613;48.116;11.656;2022-10-16T08:05:59;23.70;73.30
41924;DHT22;27613;48.116;11.656;2022-10-16T08:08:26;22.60;74.30
41924;DHT22;27613;48.116;11.656;2022-10-16T08:10:52;21.60;78.30
41924;DHT22;27613;48.116;11.656;2022-10-16T08:13:17;21.80;78.10
41924;DHT22;27613;48.116;11.656;2022-10-16T08:15:44;21.90;78.30
41924;DHT22;27613;48.116;11.656;2022-10-16T08:18:11;23.30;75.80
41924;DHT22;27613;48.116;11.656;2022-10-16T08:20:38;24.50;70.50
41924;DHT22;27613;48.116;11.656;2022-10-16T08:23:04;24.70;69.70
41924;DHT22;27613;48.116;11.656;2022-10-16T08:25:30;26.30;67.40
41924;DHT22;27613;48.116;11.656;2022-10-16T08:27:55;27.10;63.70
41924;DHT22;27613;48.116;11.656;2022-10-16T08:30:22;26.50;64.30
41924;DHT22;27613;48.116;11.656;2022-10-16T08:32:48;26.40;64.50
41924;DHT22;27613;48.116;11.656;2022-10-16T08:35:14;26.10;65.30
41924;DHT22;27613;48.116;11.656;2022-10-16T08:37:40;26.40;63.70
41924;DHT22;27613;48.116;11.656;2022-10-16T08:40:11;27.20;63.00
41924;DHT22;27613;48.116;11.656;2022-10-16T08:45:44;25.20;63.80
41924;DHT22;27613;48.116;11.656;2022-10-16T08:48:46;26.20;63.70
41924;DHT22;27613;48.116;11.656;2022-10-16T08:51:24;25.50;65.00
41924;DHT22;27613;48.116;11.656;2022-10-16T08:54:03;25.20;65.40
41924;DHT22;27613;48.116;11.656;2022-10-16T08:56:29;26.20;62.40
41924;DHT22;27613;48.116;11.656;2022-10-16T08:58:54;27.00;61.00
41924;DHT22;27613;48.116;11.656;2022-10-16T09:01:24;27.30;61.50
41924;DHT22;27613;48.116;11.656;2022-10-16T09:03:58;26.00;63.30
41924;DHT22;27613;48.116;11.656;2022-10-16T09:09:19;28.30;59.60
41924;DHT22;27613;48.116;11.656;2022-10-16T09:22:32;29.10;55.50
41924;DHT22;27613;48.116;11.656;2022-10-16T09:25:11;28.60;57.10
41924;DHT22;27613;48.116;11.656;2022-10-16T09:27:37;29.90;55.50
41924;DHT22;27613;48.116;11.656;2022-10-16T09:30:14;30.50;54.00
41924;DHT22;27613;48.116;11.656;2022-10-16T09:32:40;29.70;55.00
41924;DHT22;27613;48.116;11.656;2022-10-16T09:35:22;30.20;54.50
41924;DHT22;27613;48.116;11.656;2022-10-16T09:37:51;29.00;55.30
41924;DHT22;27613;48.116;11.656;2022-10-16T09:40:38;28.40;57.10
41924;DHT22;27613;48.116;11.656;2022-10-16T09:46:05;31.10;53.70
41924;DHT22;27613;48.116;11.656;2022-10-16T09:48:44;30.50;53.60
41924;DHT22;27613;48.116;11.656;2022-10-16T09:51:26;30.90;53.10
41924;DHT22;27613;48.116;11.656;2022-10-16T09:53:59;30.90;52.00
41924;DHT22;27613;48.116;11.656;2022-10-16T09:56:35;28.80;53.30
41924;DHT22;27613;48.116;11.656;2022-10-16T09:59:15;30.00;52.80
41924;DHT22;27613;48.116;11.656;2022-10-16T10:01:55;31.60;50.50
41924;DHT22;27613;48.116;11.656;2022-10-16T10:04:22;31.40;50.20
41924;DHT22;27613;48.116;11.656;2022-10-16T10:06:51;28.70;51.80
41924;DHT22;27613;48.116;11.656;2022-10-16T10:09:27;29.20;51.40
41924;DHT22;27613;48.116;11.656;2022-10-16T10:12:00;29.60;51.90
41924;DHT22;27613;48.116;11.656;2022-10-16T10:17:10;29.70;53.80
41924;DHT22;27613;48.116;11.656;2022-10-16T10:19:46;30.30;53.00
41924;DHT22;27613;48.116;11.656;2022-10-16T10:33:45;31.20;48.50
41924;DHT22;27613;48.116;11.656;2022-10-16T10:36:32;31.80;49.20
41924;DHT22;27613;48.116;11.656;2022-10-16T10:39:00;31.50;49.80
41924;DHT22;27613;48.116;11.656;2022-10-16T10:41:50;29.90;52.10
41924;DHT22;27613;48.116;11.656;2022-10-16T10:45:16;29.00;52.30
41924;DHT22;27613;48.116;11.656;2022-10-16T10:47:42;29.70;50.90
41924;DHT22;27613;48.116;11.656;2022-10-16T10:50:34;31.60;49.40
41924;DHT22;27613;48.116;11.656;2022-10-16T11:00:44;35.00;45.30
41924;DHT22;27613;48.116;11.656;2022-10-16T11:06:16;33.30;46.90
41924;DHT22;27613;48.116;11.656;2022-10-16T11:09:11;35.00;44.90
41924;DHT22;27613;48.116;11.656;2022-10-16T11:11:51;35.40;43.50
41924;DHT22;27613;48.116;11.656;2022-10-16T11:18:04;34.40;43.00
41924;DHT22;27613;48.116;11.656;2022-10-16T11:20:20;35.20;42.40
41924;DHT22;27613;48.116;11.656;2022-10-16T11:23:09;35.60;42.00
41924;DHT22;27613;48.116;11.656;2022-10-16T11:25:36;35.20;43.10
41924;DHT22;27613;48.116;11.656;2022-10-16T11:28:13;34.10;42.70
41924;DHT22;27613;48.116;11.656;2022-10-16T11:30:45;34.60;43.40
41924;DHT22;27613;48.116;11.656;2022-10-16T11:35:56;37.20;42.40
41924;DHT22;27613;48.116;11.656;2022-10-16T11:40:55;33.90;43.70
41924;DHT22;27613;48.116;11.656;2022-10-16T11:43:34;32.60;45.40
41924;DHT22;27613;48.116;11.656;2022-10-16T11:46:09;31.60;43.30
41924;DHT22;27613;48.116;11.656;2022-10-16T11:48:45;31.80;42.40
41924;DHT22;27613;48.116;11.656;2022-10-16T11:56:18;32.50;42.60
41924;DHT22;27613;48.116;11.656;2022-10-16T11:58:57;32.10;43.50
41924;DHT22;27613;48.116;11.656;2022-10-16T12:01:32;31.00;45.50
41924;DHT22;27613;48.116;11.656;2022-10-16T12:06:52;30.20;48.20
41924;DHT22;27613;48.116;11.656;2022-10-16T12:09:29;29.70;46.40
41924;DHT22;27613;48.116;11.656;2022-10-16T12:11:55;29.60;46.30
41924;DHT22;27613;48.116;11.656;2022-10-16T12:14:38;30.00;45.60
41924;DHT22;27613;48.116;11.656;2022-10-16T12:17:37;31.10;45.50
41924;DHT22;27613;48.116;11.656;2022-10-16T12:22:48;32.20;43.10
41924;DHT22;27613;48.116;11.656;2022-10-16T12:25:52;32.30;42.30
41924;DHT22;27613;48.116;11.656;2022-10-16T12:28:21;31.50;43.60
41924;DHT22;27613;48.116;11.656;2022-10-16T12:30:55;32.40;42.60
41924;DHT22;27613;48.116;11.656;2022-10-16T12:33:24;33.40;42.50
41924;DHT22;27613;48.116;11.656;2022-10-16T12:35:50;32.40;42.40
41924;DHT22;27613;48.116;11.656;2022-10-16T12:38:47;33.20;42.70
41924;DHT22;27613;48.116;11.656;2022-10-16T12:41:33;34.10;41.90
41924;DHT22;27613;48.116;11.656;2022-10-16T12:44:01;31.70;41.90
41924;DHT22;27613;48.116;11.656;2022-10-16T12:51:37;33.40;42.10
41924;DHT22;27613;48.116;11.656;2022-10-16T12:54:04;34.00;41.00
41924;DHT22;27613;48.116;11.656;2022-10-16T12:59:34;34.00;40.80
41924;DHT22;27613;48.116;11.656;2022-10-16T13:16:25;34.60;41.80
41924;DHT22;27613;48.116;11.656;2022-10-16T13:22:05;34.10;39.70
41924;DHT22;27613;48.116;11.656;2022-10-16T13:24:51;33.70;41.30
41924;DHT22;27613;48.116;11.656;2022-10-16T13:30:22;34.30;40.00
41924;DHT22;27613;48.116;11.656;2022-10-16T13:32:50;34.10;40.10
41924;DHT22;27613;48.116;11.656;2022-10-16T13:35:28;31.70;41.30
41924;DHT22;27613;48.116;11.656;2022-10-16T13:40:30;34.70;40.50
41924;DHT22;27613;48.116;11.656;2022-10-16T13:42:56;34.50;39.70
41924;DHT22;27613;48.116;11.656;2022-10-16T13:45:24;33.20;40.70
41924;DHT22;27613;48.116;11.656;2022-10-16T13:48:03;32.90;41.90
41924;DHT22;27613;48.116;11.656;2022-10-16T13:50:29;33.20;41.10
41924;DHT22;27613;48.116;11.656;2022-10-16T13:53:14;34.40;41.20
41924;DHT22;27613;48.116;11.656;2022-10-16T13:55:40;34.90;40.50
41924;DHT22;27613;48.116;11.656;2022-10-16T13:58:12;35.80;40.70
41924;DHT22;27613;48.116;11.656;2022-10-16T14:00:38;36.40;40.60
41924;DHT22;27613;48.116;11.656;2022-10-16T14:03:11;36.90;40.20
41924;DHT22;27613;48.116;11.656;2022-10-16T14:05:50;36.20;40.50
41924;DHT22;27613;48.116;11.656;2022-10-16T14:08:16;37.40;39.70
41924;DHT22;27613;48.116;11.656;2022-10-16T14:10:42;36.90;38.80
41924;DHT22;27613;48.116;11.656;2022-10-16T14:13:20;36.60;38.60
41924;DHT22;27613;48.116;11.656;2022-10-16T14:15:50;36.60;38.70
41924;DHT22;27613;48.116;11.656;2022-10-16T14:18:20;36.60;39.50
41924;DHT22;27613;48.116;11.656;2022-10-16T14:20:46;34.40;39.30
41924;DHT22;27613;48.116;11.656;2022-10-16T14:23:39;33.70;40.00
41924;DHT22;27613;48.116;11.656;2022-10-16T14:26:11;35.10;40.20
41924;DHT22;27613;48.116;11.656;2022-10-16T14:28:40;36.20;39.70
41924;DHT22;27613;48.116;11.656;2022-10-16T14:33:53;35.80;40.00
41924;DHT22;27613;48.116;11.656;2022-10-16T14:36:19;36.20;41.40
41924;DHT22;27613;48.116;11.656;2022-10-16T14:38:59;35.40;41.50
41924;DHT22;27613;48.116;11.656;2022-10-16T14:41:26;36.50;40.30
41924;DHT22;27613;48.116;11.656;2022-10-16T14:43:55;36.40;40.60
41924;DHT22;27613;48.116;11.656;2022-10-16T14:46:28;36.70;40.10
41924;DHT22;27613;48.116;11.656;2022-10-16T14:51:35;36.00;40.40
41924;DHT22;27613;48.116;11.656;2022-10-16T14:54:01;34.50;41.70
41924;DHT22;27613;48.116;11.656;2022-10-16T14:56:57;34.10;42.50
41924;DHT22;27613;48.116;11.656;2022-10-16T14:59:35;33.20;43.70
41924;DHT22;27613;48.116;11.656;2022-10-16T15:04:53;31.50;47.00
41924;DHT22;27613;48.116;11.656;2022-10-16T15:07:19;30.50;48.70
41924;DHT22;27613;48.116;11.656;2022-10-16T15:09:45;30.00;49.20
41924;DHT22;27613;48.116;11.656;2022-10-16T15:12:10;29.60;49.30
41924;DHT22;27613;48.116;11.656;2022-10-16T15:14:36;29.20;50.30
41924;DHT22;27613;48.116;11.656;2022-10-16T15:17:02;28.80;51.30
41924;DHT22;27613;48.116;11.656;2022-10-16T15:19:28;28.50;50.60
41924;DHT22;27613;48.116;11.656;2022-10-16T15:21:53;28.30;51.00
41924;DHT22;27613;48.116;11.656;2022-10-16T15:24:19;28.10;51.60
41924;DHT22;27613;48.116;11.656;2022-10-16T15:26:45;27.90;52.10
41924;DHT22;27613;48.116;11.656;2022-10-16T15:29:14;27.60;52.50
41924;DHT22;27613;48.116;11.656;2022-10-16T15:31:40;27.40;53.40
41924;DHT22;27613;48.116;11.656;2022-10-16T15:34:09;27.20;53.50
41924;DHT22;27613;48.116;11.656;2022-10-16T15:36:37;27.10;53.90
41924;DHT22;27613;48.116;11.656;2022-10-16T15:39:04;26.70;54.50
41924;DHT22;27613;48.116;11.656;2022-10-16T15:41:30;26.60;55.70
41924;DHT22;27613;48.116;11.656;2022-10-16T15:43:56;26.40;56.10
41924;DHT22;27613;48.116;11.656;2022-10-16T15:46:23;26.20;57.10
41924;DHT22;27613;48.116;11.656;2022-10-16T15:48:50;26.00;58.10
41924;DHT22;27613;48.116;11.656;2022-10-16T15:51:17;25.70;58.40
41924;DHT22;27613;48.116;11.656;2022-10-16T15:53:43;25.60;59.90
41924;DHT22;27613;48.116;11.656;2022-10-16T15:56:11;25.30;60.40
41924;DHT22;27613;48.116;11.656;2022-10-16T15:58:37;25.20;61.60
41924;DHT22;27613;48.116;11.656;2022-10-16T16:01:03;25.10;61.80
41924;DHT22;27613;48.116;11.656;2022-10-16T16:03:30;25.00;62.10
41924;DHT22;27613;48.116;11.656;2022-10-16T16:05:56;24.70;62.40
41924;DHT22;27613;48.116;11.656;2022-10-16T16:08:22;24.50;62.80
41924;DHT22;27613;48.116;11.656;2022-10-16T16:11:03;24.50;63.60
41924;DHT22;27613;48.116;11.656;2022-10-16T16:13:29;24.40;64.00
41924;DHT22;27613;48.116;11.656;2022-10-16T16:15:54;24.20;64.70
41924;DHT22;27613;48.116;11.656;2022-10-16T16:18:20;24.00;64.90
41924;DHT22;27613;48.116;11.656;2022-10-16T16:20:46;23.90;65.30
41924;DHT22;27613;48.116;11.656;2022-10-16T16:23:11;23.80;66.50
41924;DHT22;27613;48.116;11.656;2022-10-16T16:25:37;23.60;66.80
41924;DHT22;27613;48.116;11.656;2022-10-16T16:28:03;23.50;67.30
41924;DHT22;27613;48.116;11.656;2022-10-16T16:30:28;23.40;68.00
41924;DHT22;27613;48.116;11.656;2022-10-16T16:32:54;23.20;69.00
41924;DHT22;27613;48.116;11.656;2022-10-16T16:35:19;23.10;69.70
41924;DHT22;27613;48.116;11.656;2022-10-16T16:37:46;22.90;70.30
41924;DHT22;27613;48.116;11.656;2022-10-16T16:40:12;22.80;70.90
41924;DHT22;27613;48.116;11.656;2022-10-16T16:42:37;22.60;70.50
41924;DHT22;27613;48.116;11.656;2022-10-16T16:45:03;22.40;71.30
41924;DHT22;27613;48.116;11.656;2022-10-16T16:47:29;22.30;72.20
41924;DHT22;27613;48.116;11.656;2022-10-16T16:49:54;22.20;72.70
41924;DHT22;27613;48.116;11.656;2022-10-16T16:52:20;22.20;73.60
41924;DHT22;27613;48.116;11.656;2022-10-16T16:54:47;22.20;73.30
41924;DHT22;27613;48.116;11.656;2022-10-16T16:57:20;22.00;73.60
41924;DHT22;27613;48.116;11.656;2022-10-16T16:59:46;21.90;74.30
41924;DHT22;27613;48.116;11.656;2022-10-16T17:02:12;21.70;75.20
41924;DHT22;27613;48.116;11.656;2022-10-16T17:04:37;21.70;75.70
41924;DHT22;27613;48.116;11.656;2022-10-16T17:07:03;21.40;75.70
41924;DHT22;27613;48.116;11.656;2022-10-16T17:09:29;21.30;76.80
41924;DHT22;27613;48.116;11.656;2022-10-16T17:11:56;21.30;76.90
41924;DHT22;27613;48.116;11.656;2022-10-16T17:14:22;21.10;77.10
41924;DHT22;27613;48.116;11.656;2022-10-16T17:16:47;21.00;78.40
41924;DHT22;27613;48.116;11.656;2022-10-16T17:19:16;20.90;78.90
41924;DHT22;27613;48.116;11.656;2022-10-16T17:21:43;20.80;79.10
41924;DHT22;27613;48.116;11.656;2022-10-16T17:24:09;20.70;79.80
41924;DHT22;27613;48.116;11.656;2022-10-16T17:26:36;20.60;80.00